sensor_id;sensor_type;location;lat;lon;timestamp;temperature;humidity
22035;DHT22;11181;51.002;4.356;2023-11-19T00:01:58;14.80;99.90
22035;DHT22;11181;51.002;4.356;2023-11-19T00:04:25;14.80;99.90
22035;DHT22;11181;51.002;4.356;2023-11-19T00:06:52;14.90;99.90
22035;DHT22;11181;51.002;4.356;2023-11-19T00:09:18;14.90;99.90
22035;DHT22;11181;51.002;4.356;2023-11-19T00:11:47;14.90;99.90
22035;DHT22;11181;51.002;4.356;2023-11-19T00:14:15;15.00;99.90
22035;DHT22;11181;51.002;4.356;2023-11-19T00:16:42;14.90;99.90
22035;DHT22;11181;51.002;4.356;2023-11-19T00:19:10;15.00;99.90
22035;DHT22;11181;51.002;4.356;2023-11-19T00:21:37;15.00;99.90
22035;DHT22;11181;51.002;4.356;2023-11-19T00:24:05;15.00;99.90
22035;DHT22;11181;51.002;4.356;2023-11-19T00:26:32;14.90;99.90
22035;DHT22;11181;51.002;4.356;2023-11-19T00:29:00;14.90;99.90
22035;DHT22;11181;51.002;4.356;2023-11-19T00:31:27;14.90;99.90
22035;DHT22;11181;51.002;4.356;2023-11-19T00:33:54;14.90;99.90
22035;DHT22;11181;51.002;4.356;2023-11-19T00:36:21;14.90;99.90
22035;DHT22;11181;51.002;4.356;2023-11-19T00:38:49;15.00;99.90
22035;DHT22;11181;51.002;4.356;2023-11-19T00:41:18;15.00;99.90
22035;DHT22;11181;51.002;4.356;2023-11-19T00:43:45;14.90;99.90
22035;DHT22;11181;51.002;4.356;2023-11-19T00:46:13;14.90;99.90
22035;DHT22;11181;51.002;4.356;2023-11-19T00:48:40;14.80;99.90
22035;DHT22;11181;51.002;4.356;2023-11-19T00:51:07;14.80;99.90
22035;DHT22;11181;51.002;4.356;2023-11-19T00:53:34;14.80;99.90
22035;DHT22;11181;51.002;4.356;2023-11-19T00:56:01;14.80;99.90
22035;DHT22;11181;51.002;4.356;2023-11-19T00:58:28;14.80;99.90
22035;DHT22;11181;51.002;4.356;2023-11-19T01:00:55;14.80;99.90
22035;DHT22;11181;51.002;4.356;2023-11-19T01:03:24;14.90;99.90
22035;DHT22;11181;51.002;4.356;2023-11-19T01:05:51;14.90;99.90
22035;DHT22;11181;51.002;4.356;2023-11-19T01:08:19;14.90;99.90
22035;DHT22;11181;51.002;4.356;2023-11-19T01:10:46;14.90;99.90
22035;DHT22;11181;51.002;4.356;2023-11-19T01:13:13;15.00;99.90
22035;DHT22;11181;51.002;4.356;2023-11-19T01:15:40;15.00;99.90
22035;DHT22;11181;51.002;4.356;2023-11-19T01:18:07;15.00;99.90
22035;DHT22;11181;51.002;4.356;2023-11-19T01:20:36;15.00;99.90
22035;DHT22;11181;51.002;4.356;2023-11-19T01:23:03;15.10;99.90
22035;DHT22;11181;51.002;4.356;2023-11-19T01:25:30;15.20;99.90
22035;DHT22;11181;51.002;4.356;2023-11-19T01:27:57;15.10;99.90
22035;DHT22;11181;51.002;4.356;2023-11-19T01:30:27;15.00;99.90
22035;DHT22;11181;51.002;4.356;2023-11-19T01:32:54;15.00;99.90
22035;DHT22;11181;51.002;4.356;2023-11-19T01:35:22;15.00;99.90
22035;DHT22;11181;51.002;4.356;2023-11-19T01:37:50;15.00;99.90
22035;DHT22;11181;51.002;4.356;2023-11-19T01:40:20;14.90;99.90
22035;DHT22;11181;51.002;4.356;2023-11-19T01:42:47;14.90;99.90
22035;DHT22;11181;51.002;4.356;2023-11-19T01:45:22;14.80;99.90
22035;DHT22;11181;51.002;4.356;2023-11-19T01:47:53;14.70;99.90
22035;DHT22;11181;51.002;4.356;2023-11-19T01:50:21;14.70;99.90
22035;DHT22;11181;51.002;4.356;2023-11-19T01:52:50;14.60;99.90
22035;DHT22;11181;51.002;4.356;2023-11-19T01:55:17;14.50;99.90
22035;DHT22;11181;51.002;4.356;2023-11-19T01:57:44;14.50;99.90
22035;DHT22;11181;51.002;4.356;2023-11-19T02:00:13;14.50;99.90
22035;DHT22;11181;51.002;4.356;2023-11-19T02:02:40;14.50;99.90
22035;DHT22;11181;51.002;4.356;2023-11-19T02:05:07;14.50;99.90
22035;DHT22;11181;51.002;4.356;2023-11-19T02:07:34;14.40;99.90
22035;DHT22;11181;51.002;4.356;2023-11-19T02:10:03;14.40;99.90
22035;DHT22;11181;51.002;4.356;2023-11-19T02:12:31;14.40;99.90
22035;DHT22;11181;51.002;4.356;2023-11-19T02:14:59;14.40;99.90
22035;DHT22;11181;51.002;4.356;2023-11-19T02:17:26;14.40;99.90
22035;DHT22;11181;51.002;4.356;2023-11-19T02:19:54;14.50;99.90
22035;DHT22;11181;51.002;4.356;2023-11-19T02:22:20;14.50;99.90
22035;DHT22;11181;51.002;4.356;2023-11-19T02:24:51;14.60;99.90
22035;DHT22;11181;51.002;4.356;2023-11-19T02:27:28;14.60;99.90
22035;DHT22;11181;51.002;4.356;2023-11-19T02:29:58;14.60;99.90
22035;DHT22;11181;51.002;4.356;2023-11-19T02:32:27;14.60;99.90
22035;DHT22;11181;51.002;4.356;2023-11-19T02:34:56;14.60;99.90
22035;DHT22;11181;51.002;4.356;2023-11-19T02:37:23;14.60;99.90
22035;DHT22;11181;51.002;4.356;2023-11-19T02:39:50;14.60;99.90
22035;DHT22;11181;51.002;4.356;2023-11-19T02:42:17;14.60;99.90
22035;DHT22;11181;51.002;4.356;2023-11-19T02:44:44;14.60;99.90
22035;DHT22;11181;51.002;4.356;2023-11-19T02:47:13;14.60;99.90
22035;DHT22;11181;51.002;4.356;2023-11-19T02:49:39;14.60;99.90
22035;DHT22;11181;51.002;4.356;2023-11-19T02:52:07;14.60;99.90
22035;DHT22;11181;51.002;4.356;2023-11-19T02:54:36;14.60;99.90
22035;DHT22;11181;51.002;4.356;2023-11-19T02:57:03;14.50;99.90
22035;DHT22;11181;51.002;4.356;2023-11-19T02:59:35;14.50;99.90
22035;DHT22;11181;51.002;4.356;2023-11-19T03:02:07;14.50;99.90
22035;DHT22;11181;51.002;4.356;2023-11-19T03:04:38;14.50;99.90
22035;DHT22;11181;51.002;4.356;2023-11-19T03:07:05;14.50;99.90
22035;DHT22;11181;51.002;4.356;2023-11-19T03:09:32;14.50;99.90
22035;DHT22;11181;51.002;4.356;2023-11-19T03:12:00;14.50;99.90
22035;DHT22;11181;51.002;4.356;2023-11-19T03:14:27;14.40;99.90
22035;DHT22;11181;51.002;4.356;2023-11-19T03:16:54;14.40;99.90
22035;DHT22;11181;51.002;4.356;2023-11-19T03:19:21;14.50;99.90
22035;DHT22;11181;51.002;4.356;2023-11-19T03:21:49;14.40;99.90
22035;DHT22;11181;51.002;4.356;2023-11-19T03:24:16;14.40;99.90
22035;DHT22;11181;51.002;4.356;2023-11-19T03:26:43;14.40;99.90
22035;DHT22;11181;51.002;4.356;2023-11-19T03:29:14;14.40;99.90
22035;DHT22;11181;51.002;4.356;2023-11-19T03:31:42;14.40;99.90
22035;DHT22;11181;51.002;4.356;2023-11-19T03:34:09;14.30;99.90
22035;DHT22;11181;51.002;4.356;2023-11-19T03:36:36;14.30;99.90
22035;DHT22;11181;51.002;4.356;2023-11-19T03:39:04;14.30;99.90
22035;DHT22;11181;51.002;4.356;2023-11-19T03:41:31;14.30;99.90
22035;DHT22;11181;51.002;4.356;2023-11-19T03:43:58;14.20;99.90
22035;DHT22;11181;51.002;4.356;2023-11-19T03:46:25;14.20;99.90
22035;DHT22;11181;51.002;4.356;2023-11-19T03:48:52;14.20;99.90
22035;DHT22;11181;51.002;4.356;2023-11-19T03:51:19;14.20;99.90
22035;DHT22;11181;51.002;4.356;2023-11-19T03:53:46;14.10;99.90
22035;DHT22;11181;51.002;4.356;2023-11-19T03:56:14;14.00;99.90
22035;DHT22;11181;51.002;4.356;2023-11-19T03:58:42;14.00;99.90
22035;DHT22;11181;51.002;4.356;2023-11-19T04:01:11;13.90;99.90
22035;DHT22;11181;51.002;4.356;2023-11-19T04:03:38;13.90;99.90
22035;DHT22;11181;51.002;4.356;2023-11-19T04:06:06;13.90;99.90
22035;DHT22;11181;51.002;4.356;2023-11-19T04:08:33;13.90;99.90
22035;DHT22;11181;51.002;4.356;2023-11-19T04:11:01;13.90;99.90
22035;DHT22;11181;51.002;4.356;2023-11-19T04:13:29;14.00;99.90
22035;DHT22;11181;51.002;4.356;2023-11-19T04:15:56;13.90;99.90
22035;DHT22;11181;51.002;4.356;2023-11-19T04:18:23;13.90;99.90
22035;DHT22;11181;51.002;4.356;2023-11-19T04:20:50;13.90;99.90
22035;DHT22;11181;51.002;4.356;2023-11-19T04:23:17;13.90;99.90
22035;DHT22;11181;51.002;4.356;2023-11-19T04:25:44;13.80;99.90
22035;DHT22;11181;51.002;4.356;2023-11-19T04:28:11;13.90;99.90
22035;DHT22;11181;51.002;4.356;2023-11-19T04:30:39;13.90;99.90
22035;DHT22;11181;51.002;4.356;2023-11-19T04:33:06;13.80;99.90
22035;DHT22;11181;51.002;4.356;2023-11-19T04:35:32;13.80;99.90
22035;DHT22;11181;51.002;4.356;2023-11-19T04:37:59;13.70;99.90
22035;DHT22;11181;51.002;4.356;2023-11-19T04:40:26;13.80;99.90
22035;DHT22;11181;51.002;4.356;2023-11-19T04:42:53;13.70;99.90
22035;DHT22;11181;51.002;4.356;2023-11-19T04:45:20;13.70;99.90
22035;DHT22;11181;51.002;4.356;2023-11-19T04:47:48;13.70;99.90
22035;DHT22;11181;51.002;4.356;2023-11-19T04:50:15;13.60;99.90
22035;DHT22;11181;51.002;4.356;2023-11-19T04:52:42;13.60;99.90
22035;DHT22;11181;51.002;4.356;2023-11-19T04:55:10;13.60;99.90
22035;DHT22;11181;51.002;4.356;2023-11-19T04:57:39;13.60;99.90
22035;DHT22;11181;51.002;4.356;2023-11-19T05:00:07;13.60;99.90
22035;DHT22;11181;51.002;4.356;2023-11-19T05:02:35;13.50;99.90
22035;DHT22;11181;51.002;4.356;2023-11-19T05:05:04;13.60;99.90
22035;DHT22;11181;51.002;4.356;2023-11-19T05:07:31;13.60;99.90
22035;DHT22;11181;51.002;4.356;2023-11-19T05:09:58;13.60;99.90
22035;DHT22;11181;51.002;4.356;2023-11-19T05:12:25;13.60;99.90
22035;DHT22;11181;51.002;4.356;2023-11-19T05:14:52;13.50;99.90
22035;DHT22;11181;51.002;4.356;2023-11-19T05:17:19;13.50;99.90
22035;DHT22;11181;51.002;4.356;2023-11-19T05:19:46;13.50;99.90
22035;DHT22;11181;51.002;4.356;2023-11-19T05:22:15;13.50;99.90
22035;DHT22;11181;51.002;4.356;2023-11-19T05:24:42;13.50;99.90
22035;DHT22;11181;51.002;4.356;2023-11-19T05:27:09;13.60;99.90
22035;DHT22;11181;51.002;4.356;2023-11-19T05:29:38;13.60;99.90
22035;DHT22;11181;51.002;4.356;2023-11-19T05:32:06;13.60;99.90
22035;DHT22;11181;51.002;4.356;2023-11-19T05:34:33;13.60;99.90
22035;DHT22;11181;51.002;4.356;2023-11-19T05:37:00;13.60;99.90
22035;DHT22;11181;51.002;4.356;2023-11-19T05:39:29;13.60;99.90
22035;DHT22;11181;51.002;4.356;2023-11-19T05:41:56;13.50;99.90
22035;DHT22;11181;51.002;4.356;2023-11-19T05:44:22;13.50;99.90
22035;DHT22;11181;51.002;4.356;2023-11-19T05:46:49;13.50;99.90
22035;DHT22;11181;51.002;4.356;2023-11-19T05:49:17;13.60;99.90
22035;DHT22;11181;51.002;4.356;2023-11-19T05:51:43;13.50;99.90
22035;DHT22;11181;51.002;4.356;2023-11-19T05:54:11;13.60;99.90
22035;DHT22;11181;51.002;4.356;2023-11-19T05:56:40;13.60;99.90
22035;DHT22;11181;51.002;4.356;2023-11-19T05:59:07;13.40;99.90
22035;DHT22;11181;51.002;4.356;2023-11-19T06:01:40;13.30;99.90
22035;DHT22;11181;51.002;4.356;2023-11-19T06:04:08;13.30;99.90
22035;DHT22;11181;51.002;4.356;2023-11-19T06:06:35;13.30;99.90
22035;DHT22;11181;51.002;4.356;2023-11-19T06:09:02;13.30;99.90
22035;DHT22;11181;51.002;4.356;2023-11-19T06:11:32;13.20;99.90
22035;DHT22;11181;51.002;4.356;2023-11-19T06:13:59;13.10;99.90
22035;DHT22;11181;51.002;4.356;2023-11-19T06:16:26;13.20;99.90
22035;DHT22;11181;51.002;4.356;2023-11-19T06:18:53;13.20;99.90
22035;DHT22;11181;51.002;4.356;2023-11-19T06:21:20;13.20;99.90
22035;DHT22;11181;51.002;4.356;2023-11-19T06:23:47;13.20;99.90
22035;DHT22;11181;51.002;4.356;2023-11-19T06:26:14;13.30;99.90
22035;DHT22;11181;51.002;4.356;2023-11-19T06:28:41;13.30;99.90
22035;DHT22;11181;51.002;4.356;2023-11-19T06:31:09;13.30;99.90
22035;DHT22;11181;51.002;4.356;2023-11-19T06:33:36;13.30;99.90
22035;DHT22;11181;51.002;4.356;2023-11-19T06:36:04;13.30;99.90
22035;DHT22;11181;51.002;4.356;2023-11-19T06:38:31;13.20;99.90
22035;DHT22;11181;51.002;4.356;2023-11-19T06:40:57;13.10;99.90
22035;DHT22;11181;51.002;4.356;2023-11-19T06:43:24;13.20;99.90
22035;DHT22;11181;51.002;4.356;2023-11-19T06:45:52;13.20;99.90
22035;DHT22;11181;51.002;4.356;2023-11-19T06:48:20;13.20;99.90
22035;DHT22;11181;51.002;4.356;2023-11-19T06:50:47;13.20;99.90
22035;DHT22;11181;51.002;4.356;2023-11-19T06:53:14;13.20;99.90
22035;DHT22;11181;51.002;4.356;2023-11-19T06:55:41;13.20;99.90
22035;DHT22;11181;51.002;4.356;2023-11-19T06:58:08;13.20;99.90
22035;DHT22;11181;51.002;4.356;2023-11-19T07:00:35;13.10;99.90
22035;DHT22;11181;51.002;4.356;2023-11-19T07:03:02;13.10;99.90
22035;DHT22;11181;51.002;4.356;2023-11-19T07:05:30;13.10;99.90
22035;DHT22;11181;51.002;4.356;2023-11-19T07:07:57;13.10;99.90
22035;DHT22;11181;51.002;4.356;2023-11-19T07:10:24;13.10;99.90
22035;DHT22;11181;51.002;4.356;2023-11-19T07:12:51;13.00;99.90
22035;DHT22;11181;51.002;4.356;2023-11-19T07:15:18;13.00;99.90
22035;DHT22;11181;51.002;4.356;2023-11-19T07:17:45;12.90;99.90
22035;DHT22;11181;51.002;4.356;2023-11-19T07:20:13;12.90;99.90
22035;DHT22;11181;51.002;4.356;2023-11-19T07:22:43;13.00;99.90
22035;DHT22;11181;51.002;4.356;2023-11-19T07:25:12;13.00;99.90
22035;DHT22;11181;51.002;4.356;2023-11-19T07:27:39;13.00;99.90
22035;DHT22;11181;51.002;4.356;2023-11-19T07:30:07;13.00;99.90
22035;DHT22;11181;51.002;4.356;2023-11-19T07:32:34;13.00;99.90
22035;DHT22;11181;51.002;4.356;2023-11-19T07:35:01;13.00;99.90
22035;DHT22;11181;51.002;4.356;2023-11-19T07:37:28;13.00;99.90
22035;DHT22;11181;51.002;4.356;2023-11-19T07:39:56;13.00;99.90
22035;DHT22;11181;51.002;4.356;2023-11-19T07:42:23;13.00;99.90
22035;DHT22;11181;51.002;4.356;2023-11-19T07:44:50;13.00;99.90
22035;DHT22;11181;51.002;4.356;2023-11-19T07:47:17;13.00;99.90
22035;DHT22;11181;51.002;4.356;2023-11-19T07:49:43;13.00;99.90
22035;DHT22;11181;51.002;4.356;2023-11-19T07:52:10;13.00;99.90
22035;DHT22;11181;51.002;4.356;2023-11-19T07:54:37;13.00;99.90
22035;DHT22;11181;51.002;4.356;2023-11-19T07:57:05;13.10;99.90
22035;DHT22;11181;51.002;4.356;2023-11-19T07:59:32;13.20;99.90
22035;DHT22;11181;51.002;4.356;2023-11-19T08:01:59;13.30;99.90
22035;DHT22;11181;51.002;4.356;2023-11-19T08:04:26;13.40;99.90
22035;DHT22;11181;51.002;4.356;2023-11-19T08:06:53;13.50;99.90
22035;DHT22;11181;51.002;4.356;2023-11-19T08:09:20;13.60;99.90
22035;DHT22;11181;51.002;4.356;2023-11-19T08:11:47;13.50;99.90
22035;DHT22;11181;51.002;4.356;2023-11-19T08:14:15;13.60;99.90
22035;DHT22;11181;51.002;4.356;2023-11-19T08:16:42;13.60;99.90
22035;DHT22;11181;51.002;4.356;2023-11-19T08:19:09;13.80;99.90
22035;DHT22;11181;51.002;4.356;2023-11-19T08:21:36;13.80;99.90
22035;DHT22;11181;51.002;4.356;2023-11-19T08:24:04;13.80;99.90
22035;DHT22;11181;51.002;4.356;2023-11-19T08:26:31;13.80;99.90
22035;DHT22;11181;51.002;4.356;2023-11-19T08:28:58;13.90;99.90
22035;DHT22;11181;51.002;4.356;2023-11-19T08:31:26;13.90;99.90
22035;DHT22;11181;51.002;4.356;2023-11-19T08:33:53;14.00;99.90
22035;DHT22;11181;51.002;4.356;2023-11-19T08:36:20;14.10;99.90
22035;DHT22;11181;51.002;4.356;2023-11-19T08:38:47;14.10;99.90
22035;DHT22;11181;51.002;4.356;2023-11-19T08:41:19;14.10;99.90
22035;DHT22;11181;51.002;4.356;2023-11-19T08:43:52;14.10;99.90
22035;DHT22;11181;51.002;4.356;2023-11-19T08:46:20;14.00;99.90
22035;DHT22;11181;51.002;4.356;2023-11-19T08:48:48;13.90;99.90
22035;DHT22;11181;51.002;4.356;2023-11-19T08:51:15;13.80;99.90
22035;DHT22;11181;51.002;4.356;2023-11-19T08:53:42;13.70;99.90
22035;DHT22;11181;51.002;4.356;2023-11-19T08:56:10;13.70;99.90
22035;DHT22;11181;51.002;4.356;2023-11-19T08:58:37;13.60;99.90
22035;DHT22;11181;51.002;4.356;2023-11-19T09:01:04;13.60;99.90
22035;DHT22;11181;51.002;4.356;2023-11-19T09:03:31;13.50;99.90
22035;DHT22;11181;51.002;4.356;2023-11-19T09:06:00;13.50;99.90
22035;DHT22;11181;51.002;4.356;2023-11-19T09:08:27;13.70;99.90
22035;DHT22;11181;51.002;4.356;2023-11-19T09:10:54;13.80;99.90
22035;DHT22;11181;51.002;4.356;2023-11-19T09:13:21;14.00;99.90
22035;DHT22;11181;51.002;4.356;2023-11-19T09:15:48;14.20;99.90
22035;DHT22;11181;51.002;4.356;2023-11-19T09:18:15;14.40;99.90
22035;DHT22;11181;51.002;4.356;2023-11-19T09:20:42;14.50;99.90
22035;DHT22;11181;51.002;4.356;2023-11-19T09:23:12;14.80;99.90
22035;DHT22;11181;51.002;4.356;2023-11-19T09:25:39;15.00;99.90
22035;DHT22;11181;51.002;4.356;2023-11-19T09:28:06;15.20;99.90
22035;DHT22;11181;51.002;4.356;2023-11-19T09:30:34;15.20;99.90
22035;DHT22;11181;51.002;4.356;2023-11-19T09:33:01;15.30;99.90
22035;DHT22;11181;51.002;4.356;2023-11-19T09:35:28;15.40;99.90
22035;DHT22;11181;51.002;4.356;2023-11-19T09:37:55;15.50;99.90
22035;DHT22;11181;51.002;4.356;2023-11-19T09:40:25;15.40;99.90
22035;DHT22;11181;51.002;4.356;2023-11-19T09:42:52;15.20;99.90
22035;DHT22;11181;51.002;4.356;2023-11-19T09:45:21;15.20;99.90
22035;DHT22;11181;51.002;4.356;2023-11-19T09:47:50;15.30;99.90
22035;DHT22;11181;51.002;4.356;2023-11-19T09:50:19;15.10;99.90
22035;DHT22;11181;51.002;4.356;2023-11-19T09:52:47;14.90;99.90
22035;DHT22;11181;51.002;4.356;2023-11-19T09:55:14;14.70;99.90
22035;DHT22;11181;51.002;4.356;2023-11-19T09:57:43;14.50;99.90
22035;DHT22;11181;51.002;4.356;2023-11-19T10:00:12;14.40;99.90
22035;DHT22;11181;51.002;4.356;2023-11-19T10:02:41;14.40;99.90
22035;DHT22;11181;51.002;4.356;2023-11-19T10:05:11;14.30;99.90
22035;DHT22;11181;51.002;4.356;2023-11-19T10:07:40;14.40;99.90
22035;DHT22;11181;51.002;4.356;2023-11-19T10:10:08;14.60;99.90
22035;DHT22;11181;51.002;4.356;2023-11-19T10:12:36;14.80;99.90
22035;DHT22;11181;51.002;4.356;2023-11-19T10:15:07;15.10;99.90
22035;DHT22;11181;51.002;4.356;2023-11-19T10:17:36;15.30;99.90
22035;DHT22;11181;51.002;4.356;2023-11-19T10:20:04;15.30;99.90
22035;DHT22;11181;51.002;4.356;2023-11-19T10:22:36;15.50;99.90
22035;DHT22;11181;51.002;4.356;2023-11-19T10:25:04;15.60;99.90
22035;DHT22;11181;51.002;4.356;2023-11-19T10:27:34;15.70;99.90
22035;DHT22;11181;51.002;4.356;2023-11-19T10:30:01;15.80;99.90
22035;DHT22;11181;51.002;4.356;2023-11-19T10:32:29;15.60;99.90
22035;DHT22;11181;51.002;4.356;2023-11-19T10:35:05;15.40;99.90
22035;DHT22;11181;51.002;4.356;2023-11-19T10:37:32;15.10;99.90
22035;DHT22;11181;51.002;4.356;2023-11-19T10:40:03;15.00;99.90
22035;DHT22;11181;51.002;4.356;2023-11-19T10:42:31;14.90;99.90
22035;DHT22;11181;51.002;4.356;2023-11-19T10:44:58;14.80;99.90
22035;DHT22;11181;51.002;4.356;2023-11-19T10:47:25;14.70;99.90
22035;DHT22;11181;51.002;4.356;2023-11-19T10:49:55;14.60;99.90
22035;DHT22;11181;51.002;4.356;2023-11-19T10:52:22;14.60;99.90
22035;DHT22;11181;51.002;4.356;2023-11-19T10:54:51;14.50;99.90
22035;DHT22;11181;51.002;4.356;2023-11-19T10:57:20;14.40;99.90
22035;DHT22;11181;51.002;4.356;2023-11-19T10:59:47;14.40;99.90
22035;DHT22;11181;51.002;4.356;2023-11-19T11:02:21;14.50;99.90
22035;DHT22;11181;51.002;4.356;2023-11-19T11:04:51;14.50;99.90
22035;DHT22;11181;51.002;4.356;2023-11-19T11:07:21;14.50;99.90
22035;DHT22;11181;51.002;4.356;2023-11-19T11:09:51;14.60;99.90
22035;DHT22;11181;51.002;4.356;2023-11-19T11:12:22;14.50;99.90
22035;DHT22;11181;51.002;4.356;2023-11-19T11:14:51;14.50;99.90
22035;DHT22;11181;51.002;4.356;2023-11-19T11:17:20;14.50;99.90
22035;DHT22;11181;51.002;4.356;2023-11-19T11:19:51;14.50;99.90
22035;DHT22;11181;51.002;4.356;2023-11-19T11:22:19;14.60;99.90
22035;DHT22;11181;51.002;4.356;2023-11-19T11:25:12;14.80;99.90
22035;DHT22;11181;51.002;4.356;2023-11-19T11:27:55;14.80;99.90
22035;DHT22;11181;51.002;4.356;2023-11-19T11:30:35;14.90;99.90
22035;DHT22;11181;51.002;4.356;2023-11-19T11:33:15;15.00;99.90
22035;DHT22;11181;51.002;4.356;2023-11-19T11:35:51;15.30;99.90
22035;DHT22;11181;51.002;4.356;2023-11-19T11:38:22;15.70;99.90
22035;DHT22;11181;51.002;4.356;2023-11-19T11:41:17;15.90;99.90
22035;DHT22;11181;51.002;4.356;2023-11-19T11:43:46;16.00;99.90
22035;DHT22;11181;51.002;4.356;2023-11-19T11:49:30;16.50;99.90
22035;DHT22;11181;51.002;4.356;2023-11-19T11:51:58;16.50;99.90
22035;DHT22;11181;51.002;4.356;2023-11-19T11:54:30;16.40;99.90
22035;DHT22;11181;51.002;4.356;2023-11-19T11:57:07;16.20;99.90
22035;DHT22;11181;51.002;4.356;2023-11-19T11:59:45;16.00;99.90
22035;DHT22;11181;51.002;4.356;2023-11-19T12:02:13;15.80;99.90
22035;DHT22;11181;51.002;4.356;2023-11-19T12:04:42;15.70;99.90
22035;DHT22;11181;51.002;4.356;2023-11-19T12:07:13;15.70;99.90
22035;DHT22;11181;51.002;4.356;2023-11-19T12:09:41;15.50;99.90
22035;DHT22;11181;51.002;4.356;2023-11-19T12:12:19;15.40;99.90
22035;DHT22;11181;51.002;4.356;2023-11-19T12:15:06;15.30;99.90
22035;DHT22;11181;51.002;4.356;2023-11-19T12:17:53;15.20;99.90
22035;DHT22;11181;51.002;4.356;2023-11-19T12:20:22;15.10;99.90
22035;DHT22;11181;51.002;4.356;2023-11-19T12:22:49;15.10;99.90
22035;DHT22;11181;51.002;4.356;2023-11-19T12:25:19;14.90;99.90
22035;DHT22;11181;51.002;4.356;2023-11-19T12:27:47;14.80;99.90
22035;DHT22;11181;51.002;4.356;2023-11-19T12:30:17;14.70;99.90
22035;DHT22;11181;51.002;4.356;2023-11-19T12:32:48;14.60;99.90
22035;DHT22;11181;51.002;4.356;2023-11-19T12:35:15;14.30;99.90
22035;DHT22;11181;51.002;4.356;2023-11-19T12:37:42;14.20;99.90
22035;DHT22;11181;51.002;4.356;2023-11-19T12:40:15;14.20;99.90
22035;DHT22;11181;51.002;4.356;2023-11-19T12:42:46;14.20;99.90
22035;DHT22;11181;51.002;4.356;2023-11-19T12:45:14;14.30;99.90
22035;DHT22;11181;51.002;4.356;2023-11-19T12:47:42;14.40;99.90
22035;DHT22;11181;51.002;4.356;2023-11-19T12:50:10;14.30;99.90
22035;DHT22;11181;51.002;4.356;2023-11-19T12:52:38;14.30;99.90
22035;DHT22;11181;51.002;4.356;2023-11-19T12:57:52;14.40;99.90
22035;DHT22;11181;51.002;4.356;2023-11-19T13:00:21;14.40;99.90
22035;DHT22;11181;51.002;4.356;2023-11-19T13:02:49;14.40;99.90
22035;DHT22;11181;51.002;4.356;2023-11-19T13:05:27;14.40;99.90
22035;DHT22;11181;51.002;4.356;2023-11-19T13:08:00;14.40;99.90
22035;DHT22;11181;51.002;4.356;2023-11-19T13:10:28;14.40;99.90
22035;DHT22;11181;51.002;4.356;2023-11-19T13:13:04;14.20;99.90
22035;DHT22;11181;51.002;4.356;2023-11-19T13:15:32;14.20;99.90
22035;DHT22;11181;51.002;4.356;2023-11-19T13:17:59;14.20;99.90
22035;DHT22;11181;51.002;4.356;2023-11-19T13:20:26;14.10;99.90
22035;DHT22;11181;51.002;4.356;2023-11-19T13:22:55;14.00;99.90
22035;DHT22;11181;51.002;4.356;2023-11-19T13:25:22;13.90;99.90
22035;DHT22;11181;51.002;4.356;2023-11-19T13:27:48;14.00;99.90
22035;DHT22;11181;51.002;4.356;2023-11-19T13:30:17;14.00;99.90
22035;DHT22;11181;51.002;4.356;2023-11-19T13:32:44;14.00;99.90
22035;DHT22;11181;51.002;4.356;2023-11-19T13:35:12;14.10;99.90
22035;DHT22;11181;51.002;4.356;2023-11-19T13:37:39;14.20;99.90
22035;DHT22;11181;51.002;4.356;2023-11-19T13:40:07;14.30;99.90
22035;DHT22;11181;51.002;4.356;2023-11-19T13:42:36;14.30;99.90
22035;DHT22;11181;51.002;4.356;2023-11-19T13:45:07;14.40;99.90
22035;DHT22;11181;51.002;4.356;2023-11-19T13:47:37;14.40;99.90
22035;DHT22;11181;51.002;4.356;2023-11-19T13:50:08;14.50;99.90
22035;DHT22;11181;51.002;4.356;2023-11-19T13:52:35;14.50;99.90
22035;DHT22;11181;51.002;4.356;2023-11-19T13:55:04;14.50;99.90
22035;DHT22;11181;51.002;4.356;2023-11-19T13:57:31;14.50;99.90
22035;DHT22;11181;51.002;4.356;2023-11-19T14:00:00;14.50;99.90
22035;DHT22;11181;51.002;4.356;2023-11-19T14:02:26;14.40;99.90
22035;DHT22;11181;51.002;4.356;2023-11-19T14:04:55;14.40;99.90
22035;DHT22;11181;51.002;4.356;2023-11-19T14:07:22;14.40;99.90
22035;DHT22;11181;51.002;4.356;2023-11-19T14:09:48;14.40;99.90
22035;DHT22;11181;51.002;4.356;2023-11-19T14:12:15;14.40;99.90
22035;DHT22;11181;51.002;4.356;2023-11-19T14:14:43;14.30;99.90
22035;DHT22;11181;51.002;4.356;2023-11-19T14:17:10;14.30;99.90
22035;DHT22;11181;51.002;4.356;2023-11-19T14:19:38;14.30;99.90
22035;DHT22;11181;51.002;4.356;2023-11-19T14:22:07;14.30;99.90
22035;DHT22;11181;51.002;4.356;2023-11-19T14:24:34;14.30;99.90
22035;DHT22;11181;51.002;4.356;2023-11-19T14:27:01;14.20;99.90
22035;DHT22;11181;51.002;4.356;2023-11-19T14:29:28;14.10;99.90
22035;DHT22;11181;51.002;4.356;2023-11-19T14:31:56;14.00;99.90
22035;DHT22;11181;51.002;4.356;2023-11-19T14:34:24;13.90;99.90
22035;DHT22;11181;51.002;4.356;2023-11-19T14:36:51;13.90;99.90
22035;DHT22;11181;51.002;4.356;2023-11-19T14:39:20;13.90;99.90
22035;DHT22;11181;51.002;4.356;2023-11-19T14:41:47;14.00;99.90
22035;DHT22;11181;51.002;4.356;2023-11-19T14:44:15;13.90;99.90
22035;DHT22;11181;51.002;4.356;2023-11-19T14:46:41;13.80;99.90
22035;DHT22;11181;51.002;4.356;2023-11-19T14:49:08;13.70;99.90
22035;DHT22;11181;51.002;4.356;2023-11-19T14:51:36;13.60;99.90
22035;DHT22;11181;51.002;4.356;2023-11-19T14:54:03;13.50;99.90
22035;DHT22;11181;51.002;4.356;2023-11-19T14:56:32;13.50;99.90
22035;DHT22;11181;51.002;4.356;2023-11-19T14:58:59;13.50;99.90
22035;DHT22;11181;51.002;4.356;2023-11-19T15:01:26;13.50;99.90
22035;DHT22;11181;51.002;4.356;2023-11-19T15:03:54;13.50;99.90
22035;DHT22;11181;51.002;4.356;2023-11-19T15:06:23;13.60;99.90
22035;DHT22;11181;51.002;4.356;2023-11-19T15:08:51;13.60;99.90
22035;DHT22;11181;51.002;4.356;2023-11-19T15:11:18;13.70;99.90
22035;DHT22;11181;51.002;4.356;2023-11-19T15:13:46;13.70;99.90
22035;DHT22;11181;51.002;4.356;2023-11-19T15:16:13;13.60;99.90
22035;DHT22;11181;51.002;4.356;2023-11-19T15:18:40;13.60;99.90
22035;DHT22;11181;51.002;4.356;2023-11-19T15:21:07;13.70;99.90
22035;DHT22;11181;51.002;4.356;2023-11-19T15:23:35;13.70;99.90
22035;DHT22;11181;51.002;4.356;2023-11-19T15:26:02;13.70;99.90
22035;DHT22;11181;51.002;4.356;2023-11-19T15:28:29;13.60;99.90
22035;DHT22;11181;51.002;4.356;2023-11-19T15:30:58;13.60;99.90
22035;DHT22;11181;51.002;4.356;2023-11-19T15:33:25;13.60;99.90
22035;DHT22;11181;51.002;4.356;2023-11-19T15:35:51;13.60;99.90
22035;DHT22;11181;51.002;4.356;2023-11-19T15:38:18;13.60;99.90
22035;DHT22;11181;51.002;4.356;2023-11-19T15:40:45;13.60;99.90
22035;DHT22;11181;51.002;4.356;2023-11-19T15:43:12;13.70;99.90